Mount Burr Forest Reserve, South Australia

10:42 AM ACST on July 24, 2016 (GMT +0930)
Naracoorte | | Change Station

Elev 165 ft 36.96 °S, 140.74 °E | Updated 3 minutes ago

Light Rain
Light Rain
45.4 °F
Feels Like 38 °F
N
19.0
Wind Variable Wind from ENE
Gusts 21.0 mph

Today
High -- | Low -- °F
--% Chance of Precip.
Yesterday
High -- | Low -- °F
Precip. -- in
Pressure 29.65 in
Visibility 6.2 miles
Clouds Scattered Clouds 2200 ft
Scattered Clouds 3600 ft
Mostly Cloudy 5000 ft
Windchill 38 °F
Dew Point 43 °F
Humidity 92%
Rainfall 0.09 in
Snow Depth Not available.
7:12 AM 5:15 PM
Waning Gibbous, 81% visible
SPECI YMTG 240109Z AUTO 36018G28KT 9999 -RA SCT022 SCT036 BKN050 07/06 Q1004
Pressure 29.65 in
Visibility 6.2 miles
Clouds Scattered Clouds 2200 ft
Scattered Clouds 3600 ft
Mostly Cloudy 5000 ft
Windchill 38 °F
Dew Point 43 °F
Humidity 92%
Rainfall 0.09 in
Snow Depth Not available.
7:12 AM 5:15 PM
Waning Gibbous, 81% visible
SPECI YMTG 240109Z AUTO 36018G28KT 9999 -RA SCT022 SCT036 BKN050 07/06 Q1004

10-Day Weather Forecast

Almanac

Astronomy

Jul. 24, 2016 Rise Set
Actual Time
Civil Twilight
Nautical Twilight
Astronomical Twilight
Moon
Length of Visible Light
Length of Day
Tomorrow will be .
, % of the Moon is Illuminated

Today's Extremes

Country Highs Country Lows

Community

WunderPhotos

Upload Photos

1,926,992 photos uploaded!

WunderBlog® & News

Nearby

Air Quality

  Air Quality AQ Index Pollutant
Not available.

Snow Depth

Station Depth Elevation

Earthquake Activity

City Distance Mag. Time & Date
Minimum magnitude displayed is 2.5.

Coastal Water Temperatures

Place Temperature

Stations

Nearby Weather Stations

Station Location Temp. Windchill Dew Point Humidity Wind Precip. Elev Updated Type